Time;durP1;ratioP1;P1;durP2;ratioP2;P2;SDS_P1;SDS_P2;PMS_P1;PMS_P2;Temp;Humidity;BMP_temperature;BMP_pressure;BME280_temperature;BME280_humidity;BME280_pressure;Samples;Min_cycle;Max_cycle;Signal;HPM_P1;HPM_P2
2022/04/09 00:01:18;;;;;;;1.05;0.40;;;;;;;-0.67;100.00;95835.28;5046845;28;20046;-66
2022/04/09 00:03:45;;;;;;;1.63;0.73;;;;;;;-0.56;100.00;95844.38;5065112;28;20040;-66
2022/04/09 00:06:12;;;;;;;1.52;0.70;;;;;;;-0.63;100.00;95865.72;5059713;28;20130;-63
2022/04/09 00:08:38;;;;;;;1.38;0.60;;;;;;;-0.71;100.00;95876.63;5051448;28;20044;-63
2022/04/09 00:11:05;;;;;;;0.93;0.60;;;;;;;-0.68;100.00;95892.97;5064717;28;20048;-63
2022/04/09 00:13:32;;;;;;;0.35;0.35;;;;;;;-0.76;100.00;95913.66;5064282;28;20220;-64
2022/04/09 00:15:58;;;;;;;0.50;0.30;;;;;;;-0.78;100.00;95929.84;5045112;28;20063;-64
2022/04/09 00:18:25;;;;;;;0.88;0.60;;;;;;;-0.77;100.00;95944.78;5050584;28;20040;-63
2022/04/09 00:20:52;;;;;;;0.47;0.40;;;;;;;-0.71;100.00;95964.34;5048584;28;20053;-64
2022/04/09 00:23:19;;;;;;;0.82;0.50;;;;;;;-0.79;100.00;95979.53;5045204;28;20045;-64
2022/04/09 00:25:46;;;;;;;1.10;0.60;;;;;;;-0.75;100.00;95985.22;5046922;28;20060;-64
2022/04/09 00:28:13;;;;;;;0.50;0.50;;;;;;;-0.79;100.00;95984.84;5058774;28;20135;-64
2022/04/09 00:30:40;;;;;;;0.60;0.40;;;;;;;-0.76;100.00;95991.56;5060955;28;20063;-64
2022/04/09 00:33:06;;;;;;;0.38;0.32;;;;;;;-0.70;100.00;95998.69;5058648;28;20040;-64
2022/04/09 00:35:33;;;;;;;0.93;0.60;;;;;;;-0.72;100.00;96010.56;5063885;28;20072;-64
2022/04/09 00:38:00;;;;;;;1.33;0.60;;;;;;;-0.79;100.00;96013.25;5049191;28;20065;-63
2022/04/09 00:40:27;;;;;;;0.80;0.50;;;;;;;-0.81;100.00;96023.31;5062169;28;20045;-63
2022/04/09 00:42:54;;;;;;;0.82;0.55;;;;;;;-0.70;100.00;96013.84;5050639;28;20049;-64
2022/04/09 00:45:20;;;;;;;1.40;0.70;;;;;;;-0.70;100.00;96011.97;5044960;28;20060;-64
2022/04/09 00:47:47;;;;;;;1.65;0.80;;;;;;;-0.75;100.00;96029.59;5045451;28;20456;-65
2022/04/09 00:50:14;;;;;;;1.63;1.00;;;;;;;-0.70;100.00;96053.72;5063350;28;20055;-65
2022/04/09 00:52:50;;;;;;;2.17;1.08;;;;;;;-0.64;100.00;96066.13;5057937;28;20056;-64
2022/04/09 00:58:17;;;;;;;2.10;0.80;;;;;;;-0.60;100.00;96082.47;5044507;28;20045;-64
2022/04/09 01:00:44;;;;;;;1.85;0.90;;;;;;;-0.56;100.00;96099.63;5048842;28;20056;-64
2022/04/09 01:03:17;;;;;;;2.88;1.33;;;;;;;-0.59;100.00;96105.41;5061030;28;20110;-64
2022/04/09 01:05:44;;;;;;;2.92;1.10;;;;;;;-0.57;100.00;96122.75;5065383;28;20040;-64
2022/04/09 01:08:12;;;;;;;2.40;1.30;;;;;;;-0.57;100.00;96128.09;5060926;28;20053;-64
2022/04/09 01:10:39;;;;;;;2.42;1.23;;;;;;;-0.61;100.00;96136.69;5063091;28;20037;-63
2022/04/09 01:13:06;;;;;;;3.97;1.80;;;;;;;-0.59;100.00;96140.75;5063956;28;20048;-64
2022/04/09 01:15:33;;;;;;;6.03;2.30;;;;;;;-0.67;100.00;96138.34;5045100;28;20476;-63
2022/04/09 01:18:01;;;;;;;2.75;1.30;;;;;;;-0.62;100.00;96141.19;5048917;28;20041;-64
2022/04/09 01:20:29;;;;;;;3.65;1.52;;;;;;;-0.77;99.92;96144.13;5060244;28;20539;-63
2022/04/09 01:22:56;;;;;;;2.42;1.13;;;;;;;-0.71;100.00;96155.72;5061221;28;20458;-63
2022/04/09 01:25:23;;;;;;;2.38;1.33;;;;;;;-0.79;100.00;96168.25;5054827;28;20045;-64
2022/04/09 01:27:55;;;;;;;2.25;1.30;;;;;;;-0.79;100.00;96172.75;5040859;28;20055;-64
2022/04/09 01:30:21;;;;;;;3.22;1.60;;;;;;;-0.77;100.00;96180.50;5049219;28;20050;-64
2022/04/09 01:32:48;;;;;;;2.85;1.60;;;;;;;-0.83;100.00;96179.50;5048360;28;20055;-64
2022/04/09 01:35:15;;;;;;;3.83;1.92;;;;;;;-0.74;100.00;96190.72;5050875;28;20033;-63
2022/04/09 01:37:42;;;;;;;6.45;2.17;;;;;;;-0.78;100.00;96200.94;5062974;28;20048;-67
2022/04/09 01:40:09;;;;;;;3.53;1.85;;;;;;;-0.79;100.00;96194.81;5047316;28;20122;-66
2022/04/09 01:42:38;;;;;;;4.03;1.92;;;;;;;-0.78;100.00;96203.59;5044489;28;20393;-64
2022/04/09 01:45:09;;;;;;;3.80;1.80;;;;;;;-0.71;100.00;96215.03;5045306;28;20415;-64
2022/04/09 01:47:40;;;;;;;5.18;2.00;;;;;;;-0.74;100.00;96223.44;5060264;28;20051;-64
2022/04/09 01:50:09;;;;;;;3.08;1.58;;;;;;;-0.67;100.00;96229.56;5063441;28;20040;-64
2022/04/09 01:52:36;;;;;;;2.97;1.90;;;;;;;-0.72;100.00;96241.84;5054743;28;20411;-64
2022/04/09 01:55:03;;;;;;;4.18;2.25;;;;;;;-0.76;100.00;96246.75;5042121;28;20508;-65
2022/04/09 01:57:30;;;;;;;2.78;1.38;;;;;;;-0.77;100.00;96249.63;5047845;28;20040;-64
2022/04/09 01:59:57;;;;;;;2.97;1.60;;;;;;;-0.73;100.00;96259.63;5057533;28;20523;-64
2022/04/09 02:02:25;;;;;;;3.28;1.83;;;;;;;-0.69;100.00;96260.88;5061656;28;20554;-65
2022/04/09 02:04:52;;;;;;;4.25;2.22;;;;;;;-0.67;100.00;96272.09;5047572;28;20045;-66
2022/04/09 02:07:19;;;;;;;3.25;1.95;;;;;;;-0.72;100.00;96287.84;5058715;28;20040;-64
2022/04/09 02:09:46;;;;;;;4.75;2.33;;;;;;;-0.67;100.00;96284.56;5064641;28;20075;-65
2022/04/09 02:12:12;;;;;;;5.10;2.30;;;;;;;-0.68;100.00;96288.25;5067262;28;20523;-64
2022/04/09 02:14:40;;;;;;;4.03;2.08;;;;;;;-0.75;100.00;96298.06;5049252;28;20766;-64
2022/04/09 02:17:07;;;;;;;3.88;1.92;;;;;;;-0.73;100.00;96307.50;5047490;28;20052;-64
2022/04/09 02:19:34;;;;;;;4.70;2.58;;;;;;;-0.68;100.00;96318.31;5057536;28;20064;-65
2022/04/09 02:22:00;;;;;;;4.60;2.40;;;;;;;-0.60;100.00;96308.47;5047869;28;20049;-64
2022/04/09 02:24:27;;;;;;;5.15;2.78;;;;;;;-0.66;100.00;96324.22;5048908;28;20047;-64
2022/04/09 02:26:54;;;;;;;5.03;2.67;;;;;;;-0.64;100.00;96334.66;5048417;28;20069;-64
2022/04/09 02:29:20;;;;;;;6.50;2.22;;;;;;;-0.60;100.00;96341.22;5058140;28;20083;-64
2022/04/09 02:31:47;;;;;;;2.30;1.30;;;;;;;-0.56;100.00;96347.75;5063948;28;20037;-65
2022/04/09 02:34:14;;;;;;;3.55;1.90;;;;;;;-0.58;100.00;96354.31;5059374;28;20044;-65
2022/04/09 02:36:41;;;;;;;3.33;1.80;;;;;;;-0.45;100.00;96362.25;5067433;28;20051;-65
2022/04/09 02:39:08;;;;;;;3.08;1.67;;;;;;;-0.54;100.00;96366.16;5067148;28;20044;-65
2022/04/09 02:41:35;;;;;;;5.45;2.20;;;;;;;-0.56;100.00;96378.84;5066479;28;20519;-67
2022/04/09 02:44:02;;;;;;;3.53;1.95;;;;;;;-0.53;100.00;96389.06;5054939;28;20041;-64
2022/04/09 02:46:29;;;;;;;3.80;2.10;;;;;;;-0.51;100.00;96395.00;5047084;28;20128;-65
2022/04/09 02:48:57;;;;;;;3.92;2.08;;;;;;;-0.48;100.00;96404.41;5049951;28;20417;-65
2022/04/09 02:51:25;;;;;;;4.65;2.60;;;;;;;-0.41;100.00;96413.19;5062812;28;20052;-64
2022/04/09 02:53:52;;;;;;;5.72;3.88;;;;;;;-0.42;100.00;96412.38;5065244;28;20313;-64
2022/04/09 02:56:19;;;;;;;3.90;1.83;;;;;;;-0.46;100.00;96413.81;5054375;28;20049;-65
2022/04/09 02:58:45;;;;;;;3.72;2.10;;;;;;;-0.37;100.00;96421.59;5047889;28;20068;-65
2022/04/09 03:01:12;;;;;;;8.82;2.63;;;;;;;-0.37;100.00;96433.03;5065190;28;20041;-65
2022/04/09 03:03:39;;;;;;;4.82;2.80;;;;;;;-0.37;100.00;96432.25;5052430;28;20120;-64
2022/04/09 03:06:05;;;;;;;5.53;2.97;;;;;;;-0.36;99.84;96441.84;5049301;28;20033;-65
2022/04/09 03:08:32;;;;;;;5.68;2.85;;;;;;;-0.32;99.96;96446.56;5058625;28;20044;-65
2022/04/09 03:10:58;;;;;;;6.38;3.20;;;;;;;-0.31;100.00;96444.69;5067050;28;20476;-65
2022/04/09 03:13:25;;;;;;;8.32;4.82;;;;;;;-0.24;99.24;96453.50;5066692;28;20044;-64
2022/04/09 03:15:52;;;;;;;9.10;4.00;;;;;;;-0.27;99.40;96462.72;5064957;28;20044;-65
2022/04/09 03:18:19;;;;;;;7.28;3.65;;;;;;;-0.23;99.14;96468.44;5067506;28;20135;-65
2022/04/09 03:20:46;;;;;;;10.88;5.50;;;;;;;-0.12;99.00;96472.31;5069501;28;20052;-64
2022/04/09 03:23:15;;;;;;;9.18;4.70;;;;;;;-0.11;98.56;96475.81;5063054;28;20041;-64
2022/04/09 03:25:50;;;;;;;7.60;3.70;;;;;;;-0.13;98.65;96481.34;5059985;28;20045;-64
2022/04/09 03:28:19;;;;;;;9.60;5.57;;;;;;;-0.15;99.12;96494.84;5055938;28;20046;-65
2022/04/09 03:30:46;;;;;;;9.30;5.72;;;;;;;-0.19;98.66;96511.44;5060931;28;20052;-65
2022/04/09 03:33:16;;;;;;;12.75;6.93;;;;;;;-0.11;98.54;96515.72;5047666;28;20049;-65
2022/04/09 03:35:48;;;;;;;14.43;8.02;;;;;;;-0.20;98.69;96512.44;5046263;28;20039;-65
2022/04/09 03:38:17;;;;;;;11.23;7.07;;;;;;;-0.19;98.82;96522.09;5044877;28;20124;-65
2022/04/09 03:40:48;;;;;;;11.82;6.05;;;;;;;-0.17;98.99;96530.66;5045589;28;20048;-65
2022/04/09 03:43:18;;;;;;;9.73;6.00;;;;;;;-0.17;98.85;96536.81;5062097;28;20051;-65
2022/04/09 03:45:45;;;;;;;8.38;4.38;;;;;;;-0.13;98.34;96555.84;5064881;28;20624;-65
2022/04/09 03:48:11;;;;;;;14.90;9.00;;;;;;;-0.19;98.86;96554.81;5061469;28;20075;-65
2022/04/09 03:50:42;;;;;;;13.77;8.23;;;;;;;-0.24;98.78;96565.25;5044117;28;20687;-65
2022/04/09 03:53:10;;;;;;;9.77;5.35;;;;;;;-0.24;99.09;96565.25;5045761;28;20079;-65
2022/04/09 03:55:38;;;;;;;14.13;9.32;;;;;;;-0.20;98.70;96574.47;5054866;28;20099;-65
2022/04/09 03:58:07;;;;;;;13.05;8.55;;;;;;;-0.20;98.37;96576.31;5059571;28;20128;-65
2022/04/09 04:00:34;;;;;;;17.08;9.30;;;;;;;-0.21;98.64;96588.81;5058693;28;20079;-65
2022/04/09 04:03:01;;;;;;;14.20;8.13;;;;;;;-0.20;98.02;96584.28;5051957;28;20046;-64
2022/04/09 04:05:32;;;;;;;16.05;8.25;;;;;;;-0.22;98.46;96592.47;5047311;28;20044;-65
2022/04/09 04:07:59;;;;;;;14.30;6.65;;;;;;;-0.21;98.21;96595.97;5061810;28;20609;-65
2022/04/09 04:10:26;;;;;;;15.95;7.60;;;;;;;-0.22;97.89;96595.13;5065176;28;20064;-64
2022/04/09 04:13:00;;;;;;;17.10;10.40;;;;;;;-0.24;97.60;96614.97;5050090;28;20052;-65
2022/04/09 04:15:33;;;;;;;14.10;6.45;;;;;;;-0.24;97.80;96609.66;5063539;28;20561;-65
2022/04/09 04:18:01;;;;;;;13.00;7.22;;;;;;;-0.29;98.46;96603.09;5065450;28;20519;-65
2022/04/09 04:20:32;;;;;;;14.50;9.25;;;;;;;-0.30;98.01;96613.94;5047972;28;20041;-65
2022/04/09 04:22:59;;;;;;;16.48;8.68;;;;;;;-0.42;98.15;96617.19;5043794;28;20512;-65
2022/04/09 04:25:27;;;;;;;16.13;7.70;;;;;;;-0.48;98.36;96619.84;5047974;28;20032;-65
2022/04/09 04:27:54;;;;;;;12.02;6.88;;;;;;;-0.45;98.59;96624.75;5063794;28;20083;-65
2022/04/09 04:30:23;;;;;;;11.10;5.65;;;;;;;-0.49;98.16;96628.81;5054885;28;20053;-65
2022/04/09 04:32:50;;;;;;;18.48;9.52;;;;;;;-0.51;98.65;96630.88;5057975;28;20041;-66
2022/04/09 04:35:21;;;;;;;16.80;8.02;;;;;;;-0.58;98.47;96631.69;5058525;28;20045;-65
2022/04/09 04:37:49;;;;;;;12.38;7.68;;;;;;;-0.60;98.60;96644.34;5056002;28;20054;-65
2022/04/09 04:40:20;;;;;;;22.38;11.60;;;;;;;-0.55;98.68;96654.38;5064837;28;20085;-65
2022/04/09 04:42:52;;;;;;;15.05;8.85;;;;;;;-0.61;98.64;96661.31;5063723;28;20072;-65
2022/04/09 04:45:22;;;;;;;16.20;8.77;;;;;;;-0.64;98.38;96667.03;5056529;28;20079;-65
2022/04/09 04:47:51;;;;;;;20.58;10.82;;;;;;;-0.62;98.05;96667.66;5042683;28;20048;-65
2022/04/09 04:50:22;;;;;;;20.65;10.60;;;;;;;-0.64;98.18;96672.34;5045347;28;20139;-65
2022/04/09 04:52:50;;;;;;;15.52;7.63;;;;;;;-0.70;97.94;96681.91;5051463;28;20561;-64
2022/04/09 04:55:18;;;;;;;12.88;8.05;;;;;;;-0.69;97.98;96686.25;5038265;28;20145;-65
2022/04/09 04:57:52;;;;;;;15.90;9.18;;;;;;;-0.63;98.32;96689.94;5060823;28;20443;-64
2022/04/09 05:00:28;;;;;;;15.90;8.18;;;;;;;-0.64;97.66;96690.94;5046767;28;20098;-65
2022/04/09 05:03:00;;;;;;;17.73;9.10;;;;;;;-0.71;97.28;96693.59;5054397;28;20079;-65
2022/04/09 05:05:29;;;;;;;17.83;9.07;;;;;;;-0.69;97.58;96701.38;5054066;28;20190;-65
2022/04/09 05:07:57;;;;;;;13.07;8.23;;;;;;;-0.75;97.70;96710.94;5061806;28;20045;-65
2022/04/09 05:10:27;;;;;;;13.23;8.63;;;;;;;-0.71;97.24;96709.53;5064336;28;20036;-65
2022/04/09 05:12:58;;;;;;;18.88;9.25;;;;;;;-0.69;96.80;96712.00;5046320;28;20049;-65
2022/04/09 05:15:25;;;;;;;19.42;11.02;;;;;;;-0.71;96.28;96714.84;5042515;28;20148;-65
2022/04/09 05:17:52;;;;;;;18.27;11.55;;;;;;;-0.71;96.64;96719.34;5043999;28;20060;-65
2022/04/09 05:20:21;;;;;;;21.67;11.57;;;;;;;-0.65;96.33;96721.22;5047099;28;20047;-65
2022/04/09 05:22:49;;;;;;;16.58;9.07;;;;;;;-0.63;95.50;96732.47;5056877;28;20036;-66
2022/04/09 05:25:19;;;;;;;16.38;10.73;;;;;;;-0.56;95.48;96736.00;5063724;28;20056;-65
2022/04/09 05:27:51;;;;;;;14.45;8.65;;;;;;;-0.53;94.68;96756.06;5069464;28;20036;-65
2022/04/09 05:30:32;;;;;;;13.48;7.65;;;;;;;-0.51;94.54;96754.03;5061007;28;20063;-64
2022/04/09 05:32:59;;;;;;;12.57;8.18;;;;;;;-0.44;94.39;96760.19;5051745;28;20083;-64
2022/04/09 05:35:26;;;;;;;15.55;10.85;;;;;;;-0.43;94.36;96761.03;5042101;28;20196;-65
2022/04/09 05:37:54;;;;;;;13.18;8.02;;;;;;;-0.43;94.28;96767.19;5066099;28;20048;-65
2022/04/09 05:40:25;;;;;;;14.43;9.52;;;;;;;-0.42;93.65;96773.31;5066572;28;20048;-64
2022/04/09 05:42:55;;;;;;;10.02;5.85;;;;;;;-0.34;93.84;96780.31;5054009;28;20056;-65
2022/04/09 05:45:24;;;;;;;13.75;8.27;;;;;;;-0.34;93.07;96778.47;5055899;28;20052;-65
2022/04/09 05:47:51;;;;;;;8.27;5.00;;;;;;;-0.30;93.21;96784.19;5063989;28;20069;-65
2022/04/09 05:50:23;;;;;;;15.00;8.75;;;;;;;-0.26;93.61;96782.78;5060198;28;20052;-65
2022/04/09 05:52:50;;;;;;;13.60;8.30;;;;;;;-0.23;93.19;96792.25;5059066;28;20086;-64
2022/04/09 05:55:18;;;;;;;16.13;7.82;;;;;;;-0.18;93.51;96797.78;5057275;28;20048;-55
2022/04/09 05:57:45;;;;;;;11.77;6.72;;;;;;;0.28;93.62;96791.00;5067726;28;20143;-57
2022/04/09 06:00:13;;;;;;;11.40;5.80;;;;;;;0.33;90.70;96809.06;5050464;28;20051;-57
2022/04/09 06:03:06;;;;;;;10.15;5.35;;;;;;;0.59;91.06;96810.13;5050986;28;20048;-53
2022/04/09 06:05:37;;;;;;;11.50;6.32;;;;;;;0.58;88.05;96808.47;5066728;28;20511;-52
2022/04/09 06:08:10;;;;;;;8.48;5.43;;;;;;;0.19;90.64;96830.28;5062531;28;20053;-50
2022/04/09 06:10:38;;;;;;;9.80;5.97;;;;;;;0.12;91.09;96832.13;5069535;28;20044;-63
2022/04/09 06:13:05;;;;;;;12.82;7.18;;;;;;;0.19;91.62;96827.63;5069615;28;20044;-63
2022/04/09 06:15:32;;;;;;;11.10;5.90;;;;;;;0.19;90.91;96848.91;5062292;28;20041;-63
2022/04/09 06:18:06;;;;;;;11.00;6.07;;;;;;;0.19;91.32;96848.13;5062460;28;20061;-63
2022/04/09 06:20:33;;;;;;;11.90;7.55;;;;;;;0.20;90.85;96847.94;5072484;28;20051;-63
2022/04/09 06:23:04;;;;;;;13.27;7.13;;;;;;;0.19;91.04;96858.78;5080335;28;20051;-62
2022/04/09 06:25:32;;;;;;;10.27;7.13;;;;;;;0.15;91.12;96858.34;5061214;28;20047;-62
2022/04/09 06:27:59;;;;;;;10.52;6.63;;;;;;;0.19;92.26;96861.44;5062640;28;20051;-61
2022/04/09 06:30:28;;;;;;;12.30;5.60;;;;;;;0.22;90.98;96869.84;5059724;28;20132;-63
2022/04/09 06:33:01;;;;;;;12.18;5.85;;;;;;;0.27;91.04;96866.59;5067819;28;20613;-63
2022/04/09 06:35:30;;;;;;;9.13;6.10;;;;;;;0.28;90.25;96870.06;5077675;28;20051;-64
2022/04/09 06:37:57;;;;;;;12.50;7.30;;;;;;;0.31;90.91;96873.16;5084040;28;20047;-66
2022/04/09 06:40:26;;;;;;;15.55;7.38;;;;;;;0.36;90.25;96864.56;5072110;28;20052;-62
2022/04/09 06:42:53;;;;;;;9.23;5.85;;;;;;;0.38;90.44;96870.53;5068827;28;20434;-68
2022/04/09 06:45:38;;;;;;;11.65;7.38;;;;;;;0.41;90.68;96856.81;5061565;28;20145;-69
2022/04/09 06:48:27;;;;;;;8.57;4.82;;;;;;;0.47;90.18;96874.66;5074755;28;20624;-69
2022/04/09 06:51:13;;;;;;;10.43;6.35;;;;;;;0.50;89.99;96876.94;5060712;28;20139;-69
2022/04/09 06:53:40;;;;;;;10.63;6.65;;;;;;;0.52;90.35;96887.38;5077454;28;20041;-70
2022/04/09 06:56:07;;;;;;;8.23;5.07;;;;;;;0.57;88.97;96882.28;5061171;28;20043;-70
2022/04/09 06:58:35;;;;;;;12.43;6.57;;;;;;;0.60;88.76;96876.56;5058620;28;20073;-64
2022/04/09 07:01:02;;;;;;;10.80;6.45;;;;;;;0.63;89.59;96896.66;5063492;28;20152;-70
2022/04/09 07:03:34;;;;;;;12.93;7.55;;;;;;;0.65;89.96;96886.59;5060980;28;20048;-71
2022/04/09 07:06:00;;;;;;;13.55;5.97;;;;;;;0.70;89.32;96891.34;5066409;28;20048;-68
2022/04/09 07:08:27;;;;;;;9.45;5.47;;;;;;;0.69;88.64;96901.16;5063199;28;20051;-64
2022/04/09 07:10:54;;;;;;;13.05;6.75;;;;;;;0.74;89.20;96898.72;5059826;28;20044;-68
2022/04/09 07:13:20;;;;;;;14.30;6.35;;;;;;;0.82;89.08;96900.41;5070911;28;20041;-68
2022/04/09 07:15:47;;;;;;;15.50;6.88;;;;;;;0.86;88.88;96911.47;5064949;28;20039;-69
2022/04/09 07:18:13;;;;;;;9.85;5.68;;;;;;;0.94;89.42;96902.44;5057909;28;20048;-73
2022/04/09 07:20:40;;;;;;;12.65;6.78;;;;;;;0.97;88.30;96913.56;5060532;28;20059;-69
2022/04/09 07:23:07;;;;;;;11.32;6.28;;;;;;;1.03;87.88;96919.91;5079060;28;20063;-71
2022/04/09 07:25:35;;;;;;;8.57;5.03;;;;;;;1.09;87.92;96921.78;5059617;28;20481;-72
2022/04/09 07:28:01;;;;;;;14.27;6.55;;;;;;;1.03;87.61;96927.91;5070674;28;20048;-71
2022/04/09 07:30:29;;;;;;;9.55;5.50;;;;;;;1.05;88.37;96928.53;5078371;28;20427;-71
2022/04/09 07:32:58;;;;;;;12.05;5.13;;;;;;;1.03;87.96;96928.72;5059827;28;20052;-70
2022/04/09 07:35:26;;;;;;;10.68;4.57;;;;;;;1.00;87.42;96941.66;5064328;28;20048;-72
2022/04/09 07:37:55;;;;;;;10.48;4.35;;;;;;;1.03;87.48;96943.88;5067821;28;20711;-72
2022/04/09 07:40:29;;;;;;;11.25;5.47;;;;;;;1.05;87.56;96944.53;5058782;28;20496;-70
2022/04/09 07:42:58;;;;;;;14.57;5.63;;;;;;;1.14;86.72;96953.97;5064796;28;20247;-70
2022/04/09 07:45:25;;;;;;;11.57;5.68;;;;;;;1.11;87.55;96962.38;5051971;28;20047;-73
2022/04/09 07:47:54;;;;;;;9.90;4.63;;;;;;;1.19;87.33;96964.06;5064486;28;20044;-71
2022/04/09 07:50:21;;;;;;;8.65;4.15;;;;;;;1.26;86.96;96969.41;5062989;28;20048;-65
2022/04/09 07:52:48;;;;;;;6.97;3.95;;;;;;;1.30;85.49;96979.44;5051170;28;20552;-66
2022/04/09 07:55:16;;;;;;;8.48;4.30;;;;;;;1.43;85.85;96983.16;5048590;28;20098;-66
2022/04/09 07:57:47;;;;;;;9.40;5.15;;;;;;;1.49;86.66;96974.38;5057148;28;20040;-66
2022/04/09 08:00:15;;;;;;;12.27;4.80;;;;;;;1.58;86.64;96980.31;5058469;28;20052;-67
2022/04/09 08:02:41;;;;;;;12.27;5.20;;;;;;;1.68;86.82;96988.75;5047678;28;20102;-66
2022/04/09 08:05:10;;;;;;;10.75;4.72;;;;;;;1.86;84.71;96992.66;5051235;28;20040;-66
2022/04/09 08:07:38;;;;;;;10.40;6.03;;;;;;;1.90;85.42;96993.06;5057536;28;20048;-66
2022/04/09 08:10:06;;;;;;;9.95;5.20;;;;;;;2.06;85.08;97002.50;5075796;28;20041;-67
2022/04/09 08:12:32;;;;;;;8.70;4.30;;;;;;;2.10;84.36;97002.94;5054048;28;20043;-65
2022/04/09 08:14:59;;;;;;;8.23;3.75;;;;;;;2.19;85.19;97010.53;5060146;28;20041;-66
2022/04/09 08:17:26;;;;;;;9.50;3.90;;;;;;;2.29;83.78;97020.78;5070389;28;20197;-66
2022/04/09 08:19:53;;;;;;;10.05;5.72;;;;;;;2.24;82.21;97028.59;5057971;28;20052;-66
2022/04/09 08:22:21;;;;;;;11.52;6.88;;;;;;;2.49;82.86;97027.94;5061057;28;20498;-66
2022/04/09 08:24:47;;;;;;;11.02;5.32;;;;;;;2.45;82.21;97032.91;5062951;28;20060;-65
2022/04/09 08:27:14;;;;;;;10.07;5.15;;;;;;;2.34;83.57;97038.88;5062475;28;20049;-66
2022/04/09 08:29:41;;;;;;;14.20;6.97;;;;;;;2.30;84.25;97038.47;5054960;28;20549;-66
2022/04/09 08:32:08;;;;;;;11.38;5.82;;;;;;;2.53;82.54;97047.06;5059065;28;20060;-66
2022/04/09 08:34:38;;;;;;;7.05;3.83;;;;;;;2.76;81.22;97046.59;5063705;28;20119;-66
2022/04/09 08:37:06;;;;;;;6.90;3.63;;;;;;;2.59;79.95;97049.72;5062883;28;20533;-66
2022/04/09 08:39:36;;;;;;;8.65;3.33;;;;;;;2.50;82.48;97061.66;5062816;28;20076;-66
2022/04/09 08:42:04;;;;;;;9.00;4.43;;;;;;;2.52;81.35;97054.25;5061765;28;20052;-65
2022/04/09 08:44:30;;;;;;;7.75;4.95;;;;;;;2.62;83.35;97053.00;5054355;28;20045;-66
2022/04/09 08:46:57;;;;;;;12.15;5.18;;;;;;;2.53;83.44;97063.91;5059911;28;20609;-65
2022/04/09 08:49:24;;;;;;;6.30;4.05;;;;;;;2.76;81.82;97064.50;5062790;28;20052;-66
2022/04/09 08:51:52;;;;;;;8.80;5.72;;;;;;;2.81;82.93;97060.19;5054872;28;20040;-66
2022/04/09 08:54:19;;;;;;;15.55;6.25;;;;;;;2.75;82.75;97062.84;5062276;28;20050;-66
2022/04/09 08:56:49;;;;;;;14.75;4.45;;;;;;;2.65;80.82;97055.28;5058420;28;20738;-66
2022/04/09 08:59:16;;;;;;;9.50;4.40;;;;;;;2.58;83.10;97064.13;5059344;28;20077;-66
2022/04/09 09:01:43;;;;;;;10.07;4.47;;;;;;;2.65;83.28;97064.09;5060094;28;20099;-66
2022/04/09 09:04:10;;;;;;;11.05;3.95;;;;;;;2.64;81.48;97057.13;5063376;28;20079;-66
2022/04/09 09:06:40;;;;;;;10.77;4.07;;;;;;;2.68;82.82;97052.16;5053586;28;20408;-66
2022/04/09 09:09:09;;;;;;;8.68;3.10;;;;;;;2.77;79.34;97061.63;5044354;28;20037;-66
2022/04/09 09:11:48;;;;;;;7.97;4.07;;;;;;;2.81;81.12;97060.19;5074291;28;20052;-66
2022/04/09 09:14:33;;;;;;;9.25;4.15;;;;;;;3.02;81.17;97065.47;5058811;28;20124;-66
2022/04/09 09:17:01;;;;;;;7.70;3.55;;;;;;;3.18;80.18;97062.31;5042933;28;20049;-65
2022/04/09 09:19:43;;;;;;;12.00;5.38;;;;;;;3.07;79.55;97073.66;5060574;28;20051;-66
2022/04/09 09:22:09;;;;;;;7.15;3.30;;;;;;;3.18;79.25;97075.69;5046220;28;20056;-66
2022/04/09 09:24:36;;;;;;;8.45;2.78;;;;;;;3.52;77.54;97080.91;5066832;28;20500;-65
2022/04/09 09:27:04;;;;;;;12.65;4.03;;;;;;;3.91;77.50;97080.88;5066922;28;20044;-66
2022/04/09 09:29:31;;;;;;;7.75;3.78;;;;;;;3.96;77.41;97083.75;5046281;28;20045;-66
2022/04/09 09:32:00;;;;;;;9.65;4.45;;;;;;;3.83;78.83;97087.31;5051491;28;20130;-65
2022/04/09 09:34:28;;;;;;;7.25;3.17;;;;;;;4.04;77.92;97093.38;5050968;28;20162;-65
2022/04/09 09:36:56;;;;;;;8.00;3.75;;;;;;;3.76;76.77;97095.38;5054195;28;20037;-65
2022/04/09 09:39:25;;;;;;;5.90;2.85;;;;;;;4.07;74.17;97095.63;5061847;28;20116;-65
2022/04/09 09:41:58;;;;;;;8.65;4.00;;;;;;;4.12;76.54;97094.94;5055242;28;20049;-65
2022/04/09 09:44:27;;;;;;;9.35;3.95;;;;;;;3.96;75.30;97104.34;5049427;28;20044;-65
2022/04/09 09:47:05;;;;;;;6.65;2.83;;;;;;;3.66;75.02;97113.78;5051722;28;20068;-65
2022/04/09 09:49:37;;;;;;;8.82;3.75;;;;;;;3.47;75.66;97113.66;5048789;28;20045;-65
2022/04/09 09:52:06;;;;;;;10.27;3.92;;;;;;;3.21;77.42;97118.06;5047236;28;20045;-65
2022/04/09 09:54:33;;;;;;;6.70;3.15;;;;;;;3.04;76.32;97108.84;5061828;28;20059;-66
2022/04/09 09:57:00;;;;;;;6.40;3.72;;;;;;;3.03;76.17;97107.22;5068800;28;20046;-66
2022/04/09 09:59:30;;;;;;;10.50;3.38;;;;;;;2.85;77.44;97112.19;5042833;28;20131;-66
2022/04/09 10:01:57;;;;;;;10.88;3.42;;;;;;;2.92;76.82;97109.53;5052904;28;20078;-66
2022/04/09 10:04:24;;;;;;;5.85;2.88;;;;;;;2.98;76.17;97114.03;5049825;28;20048;-65
2022/04/09 10:06:51;;;;;;;9.35;3.25;;;;;;;3.20;75.76;97116.44;5053765;28;20036;-66
2022/04/09 10:09:19;;;;;;;8.98;3.92;;;;;;;3.40;77.36;97128.09;5045628;28;20041;-65
2022/04/09 10:11:50;;;;;;;10.23;4.22;;;;;;;3.55;75.98;97125.16;5055047;28;20107;-66
2022/04/09 10:14:22;;;;;;;11.68;3.53;;;;;;;4.05;77.08;97127.16;5051248;28;20044;-66
2022/04/09 10:16:52;;;;;;;8.80;3.78;;;;;;;4.08;75.58;97113.31;5047033;28;20682;-65
2022/04/09 10:19:23;;;;;;;11.63;4.28;;;;;;;3.82;74.18;97122.34;5054506;28;20075;-65
2022/04/09 10:21:51;;;;;;;8.30;3.90;;;;;;;4.27;74.51;97127.63;5050194;28;20049;-65
2022/04/09 10:24:23;;;;;;;10.50;3.67;;;;;;;4.36;72.98;97124.69;5054597;28;20036;-65
2022/04/09 10:26:50;;;;;;;4.93;2.13;;;;;;;4.64;71.27;97131.47;5055223;28;20112;-66
2022/04/09 10:29:17;;;;;;;8.65;3.30;;;;;;;4.49;72.08;97134.50;5060211;28;20048;-66
2022/04/09 10:31:53;;;;;;;6.70;3.13;;;;;;;4.34;73.33;97140.97;5053532;28;20507;-66
2022/04/09 10:34:20;;;;;;;9.23;2.80;;;;;;;4.17;72.15;97138.00;5046411;28;20044;-66
2022/04/09 10:36:47;;;;;;;8.32;3.20;;;;;;;4.49;71.41;97139.84;5063962;28;20040;-66
2022/04/09 10:39:29;;;;;;;11.90;3.70;;;;;;;5.01;71.83;97139.59;5064470;28;20116;-66
2022/04/09 10:41:57;;;;;;;9.40;3.72;;;;;;;5.29;71.33;97126.69;5037069;28;20040;-64
2022/04/09 10:44:43;;;;;;;6.10;3.03;;;;;;;5.28;69.00;97128.59;5062629;28;20044;-65
2022/04/09 10:47:13;;;;;;;8.90;2.78;;;;;;;5.70;69.07;97127.88;5065206;28;20041;-66
2022/04/09 10:49:40;;;;;;;5.53;2.78;;;;;;;6.02;69.43;97123.31;5045974;28;20057;-66
2022/04/09 10:52:16;;;;;;;8.07;2.90;;;;;;;5.45;69.40;97122.59;5054875;28;20498;-66
2022/04/09 10:55:10;;;;;;;5.35;2.42;;;;;;;5.55;67.33;97128.25;5054782;28;20427;-66
2022/04/09 10:57:44;;;;;;;7.93;2.97;;;;;;;5.21;67.51;97122.47;5048535;28;20043;-66
2022/04/09 11:00:23;;;;;;;8.05;3.63;;;;;;;4.69;68.40;97127.06;5060477;28;20071;-66
2022/04/09 11:03:11;;;;;;;6.72;2.47;;;;;;;4.94;69.03;97122.75;5055603;28;20036;-66
2022/04/09 11:05:43;;;;;;;5.75;2.13;;;;;;;4.58;69.09;97121.63;5064131;28;20119;-66
2022/04/09 11:08:14;;;;;;;7.25;2.65;;;;;;;4.63;70.63;97121.78;5062561;28;20056;-65
2022/04/09 11:10:43;;;;;;;8.70;3.33;;;;;;;4.91;70.33;97115.94;5064912;28;20435;-65
2022/04/09 11:13:12;;;;;;;5.53;2.72;;;;;;;4.92;70.54;97106.88;5051691;28;20466;-65
2022/04/09 11:15:40;;;;;;;7.22;2.53;;;;;;;5.18;67.00;97117.53;5072442;28;20117;-65
2022/04/09 11:18:09;;;;;;;6.47;2.58;;;;;;;5.27;69.37;97108.13;5060310;28;20047;-65
2022/04/09 11:20:37;;;;;;;10.00;4.03;;;;;;;5.14;67.67;97113.66;5058898;28;20670;-69
2022/04/09 11:23:17;;;;;;;6.68;3.35;;;;;;;5.17;67.93;97116.69;5063286;28;20056;-70
2022/04/09 11:25:45;;;;;;;6.45;2.40;;;;;;;4.89;66.10;97122.56;5074232;28;20200;-73
2022/04/09 11:28:18;;;;;;;5.70;2.53;;;;;;;5.48;67.87;97108.72;5057937;28;20548;-67
2022/04/09 11:31:02;;;;;;;6.82;2.70;;;;;;;5.94;67.50;97108.34;5051884;28;20075;-68
2022/04/09 11:33:29;;;;;;;7.85;2.70;;;;;;;6.11;65.51;97113.91;5055798;28;20048;-66
2022/04/09 11:35:57;;;;;;;9.88;3.67;;;;;;;6.36;64.25;97119.13;5057732;28;20049;-66
2022/04/09 11:38:28;;;;;;;4.32;2.38;;;;;;;6.35;65.16;97114.78;5049633;28;20037;-66
2022/04/09 11:40:55;;;;;;;5.15;2.13;;;;;;;6.14;63.07;97113.44;5034551;28;20053;-66
2022/04/09 11:43:23;;;;;;;4.40;2.08;;;;;;;6.37;63.04;97112.69;5057236;28;20522;-64